Time;durP1;ratioP1;P1;durP2;ratioP2;P2;SDS_P1;SDS_P2;PMS_P1;PMS_P2;Temp;Humidity;BMP_temperature;BMP_pressure;BME280_temperature;BME280_humidity;BME280_pressure;Samples;Min_cycle;Max_cycle;Signal;HPM_P1;HPM_P2
2023/11/03 00:00:11;;;;;;;4.15;1.00;;;7.00;99.90;;;;;;7535172;19;20625;-77
2023/11/03 00:02:43;;;;;;;1.50;0.90;;;7.10;99.90;;;;;;7536227;19;20024;-77
2023/11/03 00:05:15;;;;;;;1.83;1.10;;;7.10;99.90;;;;;;7528306;19;20015;-76
2023/11/03 00:07:49;;;;;;;1.25;0.90;;;7.10;99.90;;;;;;7533879;19;20127;-76
2023/11/03 00:10:22;;;;;;;1.02;0.85;;;7.10;99.90;;;;;;7539207;19;20014;-77
2023/11/03 00:12:54;;;;;;;0.83;0.70;;;7.00;99.90;;;;;;7530998;19;21060;-76
2023/11/03 00:15:27;;;;;;;1.88;1.10;;;7.10;99.90;;;;;;7517006;19;20272;-76
2023/11/03 00:17:59;;;;;;;1.25;1.00;;;7.10;99.90;;;;;;7514790;19;25008;-77
2023/11/03 00:20:31;;;;;;;2.00;1.20;;;7.10;99.90;;;;;;7525638;19;20062;-78
2023/11/03 00:23:04;;;;;;;1.80;0.95;;;7.00;99.90;;;;;;7543001;19;20040;-76
2023/11/03 00:25:36;;;;;;;1.83;1.50;;;7.00;99.90;;;;;;7528319;19;20020;-76
2023/11/03 00:28:09;;;;;;;1.75;1.20;;;7.00;99.90;;;;;;7544296;19;20050;-78
2023/11/03 00:30:41;;;;;;;2.20;1.00;;;7.00;99.90;;;;;;7535917;19;20010;-77
2023/11/03 00:33:17;;;;;;;2.15;1.40;;;7.00;99.90;;;;;;7525353;19;20897;-76
2023/11/03 00:35:49;;;;;;;1.40;1.00;;;7.10;99.90;;;;;;7504484;19;21263;-77
2023/11/03 00:38:22;;;;;;;2.08;0.82;;;7.10;99.90;;;;;;7533207;19;20113;-76
2023/11/03 00:40:54;;;;;;;1.73;1.10;;;7.00;99.90;;;;;;7546426;19;20034;-77
2023/11/03 00:43:26;;;;;;;1.65;1.38;;;7.10;99.90;;;;;;7535838;19;20751;-79
2023/11/03 00:45:59;;;;;;;1.45;0.98;;;7.10;99.90;;;;;;7533120;19;20211;-76
2023/11/03 00:48:32;;;;;;;;;;;7.10;99.90;;;;;;7524618;19;20524;-78
2023/11/03 00:51:04;;;;;;;1.60;1.02;;;7.00;99.90;;;;;;7535515;19;19919;-77
2023/11/03 00:53:37;;;;;;;2.15;1.17;;;7.00;99.90;;;;;;7531367;19;20050;-76
2023/11/03 00:56:09;;;;;;;2.60;0.97;;;7.00;99.90;;;;;;7535643;19;20022;-78
2023/11/03 00:58:41;;;;;;;1.88;1.08;;;6.90;99.90;;;;;;7519659;19;20111;-78
2023/11/03 01:01:15;;;;;;;1.65;0.80;;;7.00;99.90;;;;;;7527476;19;20500;-78
2023/11/03 01:03:48;;;;;;;2.03;0.80;;;7.00;99.90;;;;;;7514536;19;20538;-77
2023/11/03 01:06:22;;;;;;;1.17;0.87;;;7.00;99.90;;;;;;7525157;19;20486;-79
2023/11/03 01:08:54;;;;;;;1.65;0.65;;;7.00;99.90;;;;;;7534724;19;20287;-78
2023/11/03 01:11:27;;;;;;;1.20;0.90;;;7.00;99.90;;;;;;7514434;19;20025;-74
2023/11/03 01:13:59;;;;;;;0.75;0.65;;;7.00;99.90;;;;;;7522763;19;20014;-76
2023/11/03 01:16:33;;;;;;;1.13;0.90;;;7.00;99.90;;;;;;7514195;19;20066;-78
2023/11/03 01:19:06;;;;;;;1.27;0.77;;;6.90;99.90;;;;;;7507531;19;20238;-79
2023/11/03 01:21:39;;;;;;;0.82;0.70;;;6.90;99.90;;;;;;7513129;19;20842;-77
2023/11/03 01:24:12;;;;;;;2.45;0.70;;;6.90;99.90;;;;;;7498176;19;20736;-77
2023/11/03 01:26:44;;;;;;;1.20;1.00;;;7.00;99.90;;;;;;7510683;19;20011;-77
2023/11/03 01:29:17;;;;;;;1.25;1.10;;;7.00;99.90;;;;;;7497273;19;20026;-78
2023/11/03 01:31:49;;;;;;;1.00;0.80;;;7.00;99.90;;;;;;7503452;19;20210;-77
2023/11/03 01:34:21;;;;;;;3.55;0.90;;;7.00;99.90;;;;;;7501044;19;20283;-77
2023/11/03 01:36:55;;;;;;;2.03;1.15;;;6.90;99.90;;;;;;7517590;19;20170;-77
2023/11/03 01:39:27;;;;;;;1.23;0.90;;;7.00;99.90;;;;;;7497458;19;20010;-77
2023/11/03 01:42:00;;;;;;;1.27;0.90;;;7.00;99.90;;;;;;7471660;19;20011;-77
2023/11/03 01:44:34;;;;;;;1.38;1.02;;;6.90;99.90;;;;;;7487592;19;20421;-78
2023/11/03 01:47:06;;;;;;;1.20;0.80;;;6.90;99.90;;;;;;7492656;19;20022;-76
2023/11/03 01:49:39;;;;;;;1.83;0.90;;;6.90;99.90;;;;;;7496922;19;20015;-78
2023/11/03 01:52:12;;;;;;;3.00;1.27;;;7.00;99.90;;;;;;7507431;19;21197;-78
2023/11/03 01:54:44;;;;;;;3.20;1.00;;;7.00;99.90;;;;;;7520863;19;20326;-76
2023/11/03 01:57:18;;;;;;;6.32;0.73;;;6.90;99.90;;;;;;7488616;19;20668;-76
2023/11/03 01:59:51;;;;;;;2.72;1.00;;;6.90;99.90;;;;;;7492654;19;20381;-78
2023/11/03 02:02:25;;;;;;;1.42;1.00;;;7.00;99.90;;;;;;7465374;19;20014;-77
2023/11/03 02:04:57;;;;;;;3.95;1.38;;;7.00;99.90;;;;;;7513771;19;20015;-76
2023/11/03 02:07:30;;;;;;;2.38;0.90;;;6.90;99.90;;;;;;7515180;19;21357;-77
2023/11/03 02:10:06;;;;;;;1.45;1.00;;;7.00;99.90;;;;;;7504498;19;20014;-76
2023/11/03 02:12:39;;;;;;;3.08;0.77;;;7.00;99.90;;;;;;7496005;19;20022;-77
2023/11/03 02:15:12;;;;;;;3.33;0.88;;;7.10;99.90;;;;;;7502376;19;20019;-76
2023/11/03 02:17:44;;;;;;;3.40;1.50;;;7.10;99.90;;;;;;7502751;19;20010;-75
2023/11/03 02:20:17;;;;;;;1.50;1.10;;;7.00;99.90;;;;;;7504834;19;20260;-79
2023/11/03 02:22:56;;;;;;;2.42;1.30;;;7.00;99.90;;;;;;7506644;19;20451;-78
2023/11/03 02:25:28;;;;;;;3.00;1.70;;;7.00;99.90;;;;;;7522941;19;20086;-77
2023/11/03 02:28:01;;;;;;;3.03;1.30;;;7.00;99.90;;;;;;7515761;19;20018;-74
2023/11/03 02:30:33;;;;;;;1.85;1.52;;;7.00;99.90;;;;;;7495226;19;20609;-77
2023/11/03 02:33:06;;;;;;;2.80;1.50;;;7.00;99.90;;;;;;7511587;19;20022;-78
2023/11/03 02:35:38;;;;;;;2.03;1.42;;;7.00;99.90;;;;;;7505438;19;20014;-79
2023/11/03 02:38:16;;;;;;;2.55;1.48;;;7.00;99.90;;;;;;7525719;19;20690;-77
2023/11/03 02:40:54;;;;;;;2.40;1.50;;;6.90;99.90;;;;;;7496972;19;20563;-74
2023/11/03 02:43:27;;;;;;;2.88;1.55;;;6.90;99.90;;;;;;7501174;19;21206;-77
2023/11/03 02:45:59;;;;;;;4.13;1.80;;;6.90;99.90;;;;;;7524492;19;20101;-79
2023/11/03 02:48:32;;;;;;;4.50;1.50;;;6.90;99.90;;;;;;7495651;19;20546;-77
2023/11/03 02:51:04;;;;;;;3.67;1.50;;;6.90;99.90;;;;;;7507195;19;21419;-76
2023/11/03 02:53:37;;;;;;;4.40;1.55;;;6.90;99.90;;;;;;7517755;19;20588;-78
2023/11/03 02:56:09;;;;;;;3.33;1.75;;;6.90;99.90;;;;;;7505592;19;20021;-77
2023/11/03 02:58:42;;;;;;;2.17;1.30;;;6.80;99.90;;;;;;7516217;19;20671;-78
2023/11/03 03:01:15;;;;;;;1.77;1.30;;;6.80;99.90;;;;;;7494081;19;21663;-77
2023/11/03 03:03:48;;;;;;;5.80;2.03;;;6.80;99.90;;;;;;7487340;19;20251;-80
2023/11/03 03:06:20;;;;;;;1.90;1.38;;;6.80;99.90;;;;;;7507925;19;20010;-78
2023/11/03 03:08:53;;;;;;;2.85;1.20;;;6.80;99.90;;;;;;7522191;19;20014;-75
2023/11/03 03:11:25;;;;;;;1.35;1.25;;;6.80;99.90;;;;;;7518768;19;20461;-75
2023/11/03 03:13:57;;;;;;;4.22;1.20;;;6.80;99.90;;;;;;7512874;19;20141;-77
2023/11/03 03:16:30;;;;;;;4.85;1.92;;;6.80;99.90;;;;;;7499384;19;20066;-76
2023/11/03 03:19:02;;;;;;;2.92;1.75;;;6.80;99.90;;;;;;7506770;19;20345;-77
2023/11/03 03:21:35;;;;;;;3.37;1.70;;;6.80;99.90;;;;;;7494655;19;20014;-76
2023/11/03 03:24:07;;;;;;;5.63;2.47;;;6.80;99.90;;;;;;7519112;19;20010;-75
2023/11/03 03:26:39;;;;;;;13.35;10.02;;;6.80;99.90;;;;;;7508177;19;20501;-77
2023/11/03 03:29:11;;;;;;;7.53;5.72;;;6.80;99.90;;;;;;7514900;19;20566;-75
2023/11/03 03:31:43;;;;;;;4.13;3.25;;;6.80;99.90;;;;;;7507790;19;20378;-77
2023/11/03 03:34:16;;;;;;;6.25;3.10;;;6.80;99.90;;;;;;7498834;19;21408;-75
2023/11/03 03:36:48;;;;;;;4.15;2.67;;;6.80;99.90;;;;;;7495156;19;20011;-75
2023/11/03 03:39:20;;;;;;;6.78;2.55;;;6.80;99.90;;;;;;7506686;19;20049;-75
2023/11/03 03:41:53;;;;;;;2.63;2.10;;;6.80;99.90;;;;;;7510073;19;20969;-75
2023/11/03 03:44:25;;;;;;;2.47;1.67;;;6.80;99.90;;;;;;7490968;19;20014;-76
2023/11/03 03:46:58;;;;;;;4.43;1.33;;;6.70;99.90;;;;;;7507088;19;20029;-76
2023/11/03 03:49:30;;;;;;;2.42;1.70;;;6.80;99.90;;;;;;7495656;19;20057;-75
2023/11/03 03:52:03;;;;;;;2.78;1.83;;;6.80;99.90;;;;;;7507234;19;20190;-76
2023/11/03 03:54:36;;;;;;;4.63;1.45;;;6.80;99.90;;;;;;7509123;19;20382;-76
2023/11/03 03:57:08;;;;;;;2.60;1.45;;;6.80;99.90;;;;;;7498666;19;20022;-77
2023/11/03 03:59:40;;;;;;;3.07;1.60;;;6.90;99.90;;;;;;7490929;19;20002;-76
2023/11/03 04:02:13;;;;;;;6.00;1.30;;;6.90;99.90;;;;;;7482705;19;20292;-76
2023/11/03 04:04:45;;;;;;;4.15;2.08;;;6.90;99.90;;;;;;7500225;19;20025;-76
2023/11/03 04:07:17;;;;;;;3.92;1.40;;;6.90;99.90;;;;;;7509989;19;20103;-74
2023/11/03 04:09:50;;;;;;;5.32;3.28;;;6.80;99.90;;;;;;7507269;19;20014;-78
2023/11/03 04:12:23;;;;;;;4.72;2.60;;;6.80;99.90;;;;;;7527217;19;20570;-77
2023/11/03 04:14:56;;;;;;;10.70;2.85;;;6.80;99.90;;;;;;7519741;19;20018;-78
2023/11/03 04:17:28;;;;;;;4.85;2.10;;;6.80;99.90;;;;;;7506846;19;21236;-76
2023/11/03 04:20:00;;;;;;;2.13;1.60;;;6.80;99.90;;;;;;7519270;19;20017;-76
2023/11/03 04:22:32;;;;;;;4.20;2.40;;;6.80;99.90;;;;;;7528904;19;20017;-76
2023/11/03 04:25:05;;;;;;;5.63;2.25;;;6.80;99.90;;;;;;7516531;19;20086;-77
2023/11/03 04:27:37;;;;;;;4.15;2.50;;;6.80;99.90;;;;;;7512666;19;20828;-76
2023/11/03 04:30:10;;;;;;;4.85;2.28;;;6.80;99.90;;;;;;7525074;19;20014;-78
2023/11/03 04:32:43;;;;;;;6.55;1.85;;;6.70;99.90;;;;;;7517636;19;20024;-78
2023/11/03 04:35:15;;;;;;;4.65;2.17;;;6.80;99.90;;;;;;7525156;19;20010;-78
2023/11/03 04:37:49;;;;;;;5.55;1.95;;;6.80;99.90;;;;;;7525884;19;20601;-77
2023/11/03 04:40:22;;;;;;;8.00;1.90;;;6.80;99.90;;;;;;7532749;19;20021;-76
2023/11/03 04:42:54;;;;;;;8.30;2.40;;;6.80;99.90;;;;;;7506043;19;20014;-75
2023/11/03 04:45:27;;;;;;;5.28;2.28;;;6.70;99.90;;;;;;7517083;19;21486;-75
2023/11/03 04:47:59;;;;;;;5.72;2.33;;;6.70;99.90;;;;;;7508874;19;20054;-77
2023/11/03 04:50:31;;;;;;;5.95;2.15;;;6.70;99.90;;;;;;7531011;19;20379;-77
2023/11/03 04:53:04;;;;;;;5.85;2.05;;;6.70;99.90;;;;;;7514888;19;20014;-76
2023/11/03 04:55:36;;;;;;;7.07;2.20;;;6.70;99.90;;;;;;7513855;19;20373;-75
2023/11/03 04:58:09;;;;;;;6.22;1.90;;;6.70;99.90;;;;;;7516394;19;20913;-77
2023/11/03 05:00:41;;;;;;;7.43;2.15;;;6.70;99.90;;;;;;7514183;19;20029;-76
2023/11/03 05:03:14;;;;;;;12.90;2.78;;;6.80;99.90;;;;;;7516497;19;21311;-77
2023/11/03 05:05:47;;;;;;;6.03;2.50;;;6.70;99.90;;;;;;7501490;19;20526;-75
2023/11/03 05:08:19;;;;;;;8.85;2.75;;;6.70;99.90;;;;;;7533961;19;20770;-77
2023/11/03 05:10:51;;;;;;;4.35;2.45;;;6.70;99.90;;;;;;7489210;19;20588;-75
2023/11/03 05:13:23;;;;;;;4.07;2.20;;;6.70;99.90;;;;;;7521161;19;20129;-78
2023/11/03 05:15:56;;;;;;;11.45;2.97;;;6.80;99.90;;;;;;7509786;19;21419;-78
2023/11/03 05:18:28;;;;;;;4.70;2.20;;;6.70;99.90;;;;;;7517303;19;20025;-76
2023/11/03 05:21:00;;;;;;;5.18;2.65;;;6.70;99.90;;;;;;7533543;19;20033;-78
2023/11/03 05:23:33;;;;;;;5.97;2.40;;;6.70;99.90;;;;;;7520694;19;20018;-76
2023/11/03 05:26:06;;;;;;;6.82;3.13;;;6.60;99.90;;;;;;7508007;19;20366;-75
2023/11/03 05:28:39;;;;;;;8.60;2.67;;;6.50;99.90;;;;;;7513220;19;20014;-75
2023/11/03 05:31:12;;;;;;;11.98;2.90;;;6.50;99.90;;;;;;7496201;19;20018;-76
2023/11/03 05:33:44;;;;;;;;;;;6.50;99.90;;;;;;7494336;19;20026;-77
2023/11/03 05:36:17;;;;;;;8.80;2.30;;;6.40;99.90;;;;;;7469417;19;19918;-78
2023/11/03 05:38:49;;;;;;;7.47;3.85;;;6.40;99.90;;;;;;7518624;19;20469;-76
2023/11/03 05:41:23;;;;;;;4.75;2.47;;;6.40;99.90;;;;;;7524630;19;20313;-75
2023/11/03 05:43:58;;;;;;;8.25;2.17;;;6.40;99.90;;;;;;7518594;19;20015;-75
2023/11/03 05:46:31;;;;;;;6.55;2.15;;;6.40;99.90;;;;;;7530317;19;20007;-75
2023/11/03 05:49:04;;;;;;;6.47;2.33;;;6.50;99.90;;;;;;7521752;19;20018;-75
2023/11/03 05:51:38;;;;;;;7.35;2.95;;;6.50;99.90;;;;;;7511365;19;20021;-75
2023/11/03 05:54:11;;;;;;;8.38;2.47;;;6.40;99.90;;;;;;7514921;19;20039;-77
2023/11/03 05:56:43;;;;;;;12.30;2.63;;;6.40;99.90;;;;;;7514883;19;20045;-76
2023/11/03 05:59:16;;;;;;;8.82;2.40;;;6.40;99.90;;;;;;7485281;19;20299;-76
2023/11/03 06:01:48;;;;;;;4.83;2.40;;;6.40;99.90;;;;;;7532823;19;20342;-78
2023/11/03 06:04:20;;;;;;;6.45;2.45;;;6.40;99.90;;;;;;7510108;19;20470;-78
2023/11/03 06:06:53;;;;;;;7.57;2.40;;;6.50;99.90;;;;;;7533317;19;20015;-76
2023/11/03 06:09:28;;;;;;;4.97;2.20;;;6.50;99.90;;;;;;7511309;19;20022;-75
2023/11/03 06:12:03;;;;;;;8.45;2.35;;;6.60;99.90;;;;;;7512288;19;20978;-78
2023/11/03 06:14:36;;;;;;;10.85;2.83;;;6.60;99.90;;;;;;7530594;19;20044;-76
2023/11/03 06:17:08;;;;;;;5.97;2.10;;;6.60;99.90;;;;;;7521267;19;20483;-77
2023/11/03 06:19:40;;;;;;;6.22;2.20;;;6.60;99.90;;;;;;7524220;19;20014;-75
2023/11/03 06:22:13;;;;;;;3.95;1.80;;;6.60;99.90;;;;;;7517504;19;20006;-77
2023/11/03 06:24:45;;;;;;;15.13;2.00;;;6.60;99.90;;;;;;7525652;19;20515;-79
2023/11/03 06:27:17;;;;;;;9.63;2.50;;;6.60;99.90;;;;;;7510248;19;20038;-79
2023/11/03 06:29:51;;;;;;;9.13;2.00;;;6.60;99.90;;;;;;7537819;19;20099;-77
2023/11/03 06:32:23;;;;;;;4.30;2.17;;;6.60;99.90;;;;;;7532942;19;20052;-78
2023/11/03 06:34:55;;;;;;;7.32;2.30;;;6.70;99.90;;;;;;7544357;19;20389;-74
2023/11/03 06:37:27;;;;;;;4.55;1.75;;;6.70;99.90;;;;;;7530885;19;20268;-76
2023/11/03 06:40:00;;;;;;;7.65;2.10;;;6.70;99.90;;;;;;7522741;19;20018;-76
2023/11/03 06:42:32;;;;;;;10.50;2.08;;;6.70;99.90;;;;;;7494484;19;20674;-77
2023/11/03 06:45:07;;;;;;;7.40;1.90;;;6.80;99.90;;;;;;7502940;19;20389;-75
2023/11/03 06:47:40;;;;;;;5.82;1.63;;;6.70;99.90;;;;;;7496847;19;20580;-77
2023/11/03 06:50:13;;;;;;;7.87;1.90;;;6.70;99.90;;;;;;7488015;19;20686;-75
2023/11/03 06:52:47;;;;;;;6.43;1.67;;;6.80;99.90;;;;;;7517140;19;20014;-74
2023/11/03 06:55:19;;;;;;;6.60;2.00;;;6.90;99.90;;;;;;7513867;19;20484;-79
2023/11/03 06:57:52;;;;;;;6.28;2.72;;;6.90;99.90;;;;;;7517222;19;20021;-79
2023/11/03 07:00:25;;;;;;;9.25;3.03;;;6.90;99.90;;;;;;7512000;19;20015;-77
2023/11/03 07:02:57;;;;;;;7.43;2.70;;;6.80;99.90;;;;;;7517728;19;20017;-78
2023/11/03 07:05:30;;;;;;;7.47;2.45;;;6.80;99.90;;;;;;7510364;19;20290;-75
2023/11/03 07:08:02;;;;;;;7.53;2.70;;;6.80;99.90;;;;;;7517854;19;20139;-76
2023/11/03 07:10:36;;;;;;;7.18;2.47;;;6.80;99.90;;;;;;7529490;19;20982;-77
2023/11/03 07:13:09;;;;;;;8.13;2.60;;;6.80;99.90;;;;;;7522221;19;20010;-78
2023/11/03 07:15:43;;;;;;;10.75;2.10;;;6.80;99.90;;;;;;7516734;19;20019;-76
2023/11/03 07:18:15;;;;;;;;;;;6.80;99.90;;;;;;7522747;19;20052;-77
2023/11/03 07:20:48;;;;;;;7.50;3.20;;;6.80;99.90;;;;;;7520889;19;20017;-76
2023/11/03 07:23:21;;;;;;;5.35;2.40;;;6.80;99.90;;;;;;7528247;19;20026;-76
2023/11/03 07:25:56;;;;;;;8.18;2.95;;;6.90;99.90;;;;;;7525844;19;20011;-78
2023/11/03 07:28:29;;;;;;;8.13;2.88;;;6.90;99.90;;;;;;7511893;19;20018;-75
2023/11/03 07:31:03;;;;;;;;;;;6.90;99.90;;;;;;7512488;19;20041;-75
2023/11/03 07:33:35;;;;;;;8.90;2.45;;;6.90;99.90;;;;;;7514723;19;19953;-75
2023/11/03 07:36:11;;;;;;;4.13;2.50;;;6.90;99.90;;;;;;7498752;19;20015;-76
2023/11/03 07:38:43;;;;;;;7.72;2.38;;;6.90;99.90;;;;;;7504839;19;20055;-78
2023/11/03 07:41:15;;;;;;;6.82;2.50;;;6.90;99.90;;;;;;7516213;19;20060;-76
2023/11/03 07:43:47;;;;;;;12.82;6.00;;;7.00;99.90;;;;;;7518247;19;20116;-76
2023/11/03 07:46:21;;;;;;;10.95;2.92;;;7.00;99.90;;;;;;7552465;19;20018;-76
2023/11/03 07:48:53;;;;;;;8.65;3.63;;;6.90;99.90;;;;;;7550056;19;20006;-76
2023/11/03 07:51:26;;;;;;;8.27;3.35;;;7.00;99.90;;;;;;7568983;19;20025;-78
2023/11/03 07:53:59;;;;;;;10.95;3.40;;;7.00;99.90;;;;;;7523074;19;20375;-78
2023/11/03 07:56:31;;;;;;;6.38;3.47;;;7.00;99.90;;;;;;7514624;19;21382;-77
2023/11/03 07:59:07;;;;;;;6.40;2.78;;;7.00;99.90;;;;;;7478933;19;20018;-78
2023/11/03 08:01:40;;;;;;;11.00;3.03;;;6.90;99.90;;;;;;7527424;19;20010;-79
2023/11/03 08:04:13;;;;;;;10.90;2.67;;;7.00;99.90;;;;;;7524438;19;20384;-76
2023/11/03 08:06:48;;;;;;;7.55;3.08;;;7.00;99.90;;;;;;7517775;19;20702;-77
2023/11/03 08:09:21;;;;;;;10.48;2.70;;;7.00;99.90;;;;;;7506657;19;20014;-77
2023/11/03 08:11:54;;;;;;;10.77;2.17;;;7.00;99.90;;;;;;7546998;19;20018;-79
2023/11/03 08:14:29;;;;;;;8.13;1.73;;;7.00;99.90;;;;;;7580865;19;20015;-76
2023/11/03 08:17:01;;;;;;;8.05;2.53;;;7.10;99.90;;;;;;7534057;19;20086;-77
2023/11/03 08:19:34;;;;;;;17.98;2.53;;;7.10;99.90;;;;;;7514471;19;20571;-77
2023/11/03 08:22:06;;;;;;;10.07;2.42;;;7.10;99.90;;;;;;7521174;19;21913;-77
2023/11/03 08:24:38;;;;;;;8.73;2.38;;;7.10;99.90;;;;;;7486387;19;20018;-77
2023/11/03 08:27:13;;;;;;;7.05;2.75;;;7.00;99.90;;;;;;7484679;19;20661;-76
2023/11/03 08:29:47;;;;;;;9.32;2.72;;;7.10;99.90;;;;;;7503716;19;20098;-77
2023/11/03 08:32:22;;;;;;;6.72;2.53;;;7.00;99.90;;;;;;7503045;19;20017;-76
2023/11/03 08:34:56;;;;;;;9.88;3.03;;;7.10;99.90;;;;;;7494761;19;20414;-78
2023/11/03 08:37:28;;;;;;;7.28;3.15;;;7.10;99.90;;;;;;7498102;19;20021;-77
2023/11/03 08:40:01;;;;;;;11.85;2.83;;;7.10;99.90;;;;;;7511758;19;20015;-77
2023/11/03 08:42:37;;;;;;;12.30;3.30;;;7.20;99.90;;;;;;7535320;19;20078;-77
2023/11/03 08:45:15;;;;;;;10.02;3.20;;;7.20;99.90;;;;;;7534129;19;20022;-75
2023/11/03 08:47:48;;;;;;;8.70;2.85;;;7.20;99.90;;;;;;7528552;19;20086;-75
2023/11/03 08:50:21;;;;;;;11.48;3.10;;;7.20;99.90;;;;;;7524064;19;20470;-75
2023/11/03 08:52:54;;;;;;;12.27;3.58;;;7.20;99.90;;;;;;7521145;19;20042;-80
2023/11/03 08:55:26;;;;;;;8.02;3.08;;;7.20;99.90;;;;;;7496385;19;20018;-79
2023/11/03 08:57:59;;;;;;;12.90;3.70;;;7.20;99.90;;;;;;7510280;19;20808;-79
2023/11/03 09:00:32;;;;;;;7.65;2.78;;;7.20;99.90;;;;;;7524747;19;21108;-79
2023/11/03 09:03:04;;;;;;;6.93;3.00;;;7.20;99.90;;;;;;7494922;19;21555;-77
2023/11/03 09:05:37;;;;;;;8.10;2.70;;;7.20;99.90;;;;;;7520810;19;20019;-76
2023/11/03 09:08:11;;;;;;;10.70;3.22;;;7.20;99.90;;;;;;7524153;19;20010;-77
2023/11/03 09:10:43;;;;;;;8.38;3.35;;;7.30;99.90;;;;;;7526030;19;20384;-77
2023/11/03 09:13:17;;;;;;;9.27;2.70;;;7.40;99.90;;;;;;7514920;19;20007;-77
2023/11/03 09:15:49;;;;;;;10.02;3.10;;;7.20;99.90;;;;;;7477402;19;20019;-76
2023/11/03 09:18:25;;;;;;;7.13;2.85;;;7.30;99.90;;;;;;7520388;19;21120;-77
2023/11/03 09:21:01;;;;;;;16.05;4.55;;;7.30;99.90;;;;;;7517096;19;23879;-75
2023/11/03 09:23:35;;;;;;;7.85;3.15;;;7.40;99.90;;;;;;7515018;19;20018;-78
2023/11/03 09:26:07;;;;;;;11.05;3.08;;;7.40;99.90;;;;;;7527754;19;20376;-76
2023/11/03 09:28:40;;;;;;;9.77;4.20;;;7.40;99.90;;;;;;7522776;19;20068;-77
2023/11/03 09:31:12;;;;;;;11.80;4.38;;;7.50;99.90;;;;;;7508176;19;20010;-75
2023/11/03 09:33:47;;;;;;;11.02;3.17;;;7.50;99.90;;;;;;7484299;19;21118;-74
2023/11/03 09:36:19;;;;;;;5.28;2.70;;;7.40;99.90;;;;;;7470728;19;21207;-77
2023/11/03 09:38:51;;;;;;;11.57;3.05;;;7.50;99.90;;;;;;7496720;19;20460;-78
2023/11/03 09:41:26;;;;;;;10.35;2.58;;;7.50;99.90;;;;;;7513951;19;21078;-80
2023/11/03 09:43:58;;;;;;;8.73;2.60;;;7.50;99.90;;;;;;7489666;19;20022;-77
2023/11/03 09:46:34;;;;;;;9.73;2.65;;;7.60;99.90;;;;;;7502201;19;20018;-77
2023/11/03 09:49:06;;;;;;;5.95;2.20;;;7.60;99.90;;;;;;7481187;19;20447;-77
2023/11/03 09:51:46;;;;;;;7.18;2.25;;;7.60;99.90;;;;;;7473249;19;20627;-79
2023/11/03 09:54:21;;;;;;;7.05;2.17;;;7.60;99.90;;;;;;7479433;19;20018;-77
2023/11/03 09:56:54;;;;;;;10.10;2.67;;;7.70;99.90;;;;;;7496318;19;20522;-80
2023/11/03 09:59:28;;;;;;;6.70;2.07;;;7.70;99.90;;;;;;7467331;19;20641;-76
2023/11/03 10:02:09;;;;;;;8.40;2.35;;;7.70;99.90;;;;;;7506504;19;20953;-78
2023/11/03 10:04:42;;;;;;;5.40;1.85;;;7.70;99.90;;;;;;7477058;19;21320;-76
2023/11/03 10:07:16;;;;;;;8.23;2.63;;;7.70;99.90;;;;;;7467080;19;20655;-78
2023/11/03 10:09:48;;;;;;;12.90;2.65;;;7.70;99.90;;;;;;7464315;19;20017;-77
2023/11/03 10:12:21;;;;;;;9.27;2.88;;;7.70;99.90;;;;;;7460556;19;20098;-76
2023/11/03 10:14:53;;;;;;;9.83;2.77;;;7.60;99.90;;;;;;7489991;19;20014;-77
2023/11/03 10:17:26;;;;;;;16.52;3.28;;;7.70;99.90;;;;;;7485234;19;20015;-76
2023/11/03 10:19:58;;;;;;;10.20;2.95;;;7.70;99.90;;;;;;7486354;19;20014;-75
2023/11/03 10:22:31;;;;;;;14.65;2.92;;;7.70;99.90;;;;;;7475242;19;20006;-75
2023/11/03 10:25:05;;;;;;;8.40;3.67;;;7.70;99.90;;;;;;7449322;19;20501;-74
2023/11/03 10:27:38;;;;;;;8.32;2.90;;;7.70;99.90;;;;;;7483952;19;20642;-74
2023/11/03 10:30:11;;;;;;;6.32;2.90;;;7.70;99.90;;;;;;7478797;19;20637;-74
2023/11/03 10:32:44;;;;;;;5.60;2.35;;;7.60;99.90;;;;;;7483312;19;20032;-75
2023/11/03 10:35:16;;;;;;;4.78;2.53;;;7.60;99.90;;;;;;7496746;19;20015;-75
2023/11/03 10:37:48;;;;;;;9.90;2.85;;;7.50;99.90;;;;;;7474331;19;20119;-74
2023/11/03 10:40:21;;;;;;;8.30;2.53;;;7.50;99.90;;;;;;7503788;19;20018;-73
2023/11/03 10:42:56;;;;;;;8.37;3.40;;;7.40;99.90;;;;;;7484427;19;21174;-73
2023/11/03 10:45:35;;;;;;;10.85;2.67;;;7.40;99.90;;;;;;7467342;19;20287;-75
2023/11/03 10:48:21;;;;;;;7.93;3.10;;;7.40;99.90;;;;;;7465857;19;20020;-74
2023/11/03 10:51:04;;;;;;;12.85;3.17;;;7.40;99.90;;;;;;7468878;19;20025;-74
2023/11/03 10:54:10;;;;;;;7.40;3.67;;;7.40;99.90;;;;;;7475811;19;20018;-76
2023/11/03 10:56:44;;;;;;;10.95;3.63;;;7.40;99.90;;;;;;7469290;19;20026;-74
2023/11/03 10:59:39;;;;;;;9.85;2.95;;;7.40;99.90;;;;;;7457569;19;20911;-73
2023/11/03 11:02:24;;;;;;;6.53;2.95;;;7.50;99.90;;;;;;7474140;19;20014;-75
2023/11/03 11:05:02;;;;;;;15.52;3.53;;;7.50;99.90;;;;;;7445864;19;20530;-74
2023/11/03 11:07:37;;;;;;;12.48;3.45;;;7.60;99.90;;;;;;7457019;19;20030;-76
2023/11/03 11:10:09;;;;;;;5.05;2.78;;;7.70;99.90;;;;;;7488209;19;20025;-75
2023/11/03 11:12:49;;;;;;;8.02;2.70;;;7.60;99.90;;;;;;7449367;19;20222;-75
2023/11/03 11:15:21;;;;;;;8.07;2.65;;;7.60;99.90;;;;;;7502650;19;20022;-76
2023/11/03 11:17:54;;;;;;;12.85;2.78;;;7.50;99.90;;;;;;7464290;19;20078;-74
2023/11/03 11:20:30;;;;;;;14.43;3.10;;;7.60;99.90;;;;;;7482598;19;20659;-76
2023/11/03 11:23:14;;;;;;;14.35;3.50;;;7.60;99.90;;;;;;7481177;19;20557;-76
2023/11/03 11:25:50;;;;;;;13.45;3.40;;;7.60;99.90;;;;;;7496977;19;20018;-77
2023/11/03 11:28:40;;;;;;;8.27;2.33;;;7.60;99.90;;;;;;7496580;19;20014;-76
2023/11/03 11:31:26;;;;;;;7.15;1.83;;;7.50;99.90;;;;;;7481512;19;20007;-77
2023/11/03 11:34:08;;;;;;;5.93;2.50;;;7.50;99.90;;;;;;7480237;19;20018;-74
2023/11/03 11:36:44;;;;;;;7.53;2.30;;;7.40;99.90;;;;;;7466652;19;21045;-76
2023/11/03 11:39:18;;;;;;;9.52;2.00;;;7.40;99.90;;;;;;7478853;19;20015;-74
2023/11/03 11:41:59;;;;;;;9.70;2.00;;;7.30;99.90;;;;;;7458327;19;20473;-75
2023/11/03 11:44:33;;;;;;;4.47;1.67;;;7.10;99.90;;;;;;7461159;19;20017;-76
2023/11/03 11:47:06;;;;;;;;;;;6.90;99.90;;;;;;7488197;19;20017;-74
2023/11/03 11:49:39;;;;;;;7.50;2.10;;;6.90;99.90;;;;;;7519407;19;19922;-76
2023/11/03 11:52:13;;;;;;;6.78;1.95;;;6.80;99.90;;;;;;7517567;19;20399;-74
2023/11/03 11:54:46;;;;;;;5.43;2.22;;;6.70;99.90;;;;;;7479611;19;20011;-73
2023/11/03 11:57:19;;;;;;;7.57;2.85;;;6.70;99.90;;;;;;7497515;19;20019;-74
2023/11/03 11:59:53;;;;;;;6.60;2.20;;;6.70;99.90;;;;;;7502280;19;20014;-74
2023/11/03 12:02:29;;;;;;;6.57;1.80;;;6.70;99.90;;;;;;7499089;19;21070;-76
2023/11/03 12:05:02;;;;;;;5.63;2.08;;;6.60;99.90;;;;;;7504852;19;20792;-75
2023/11/03 12:08:03;;;;;;;5.88;2.22;;;6.60;99.90;;;;;;7507708;19;20021;-75
2023/11/03 12:10:36;;;;;;;8.65;2.65;;;6.60;99.90;;;;;;7514966;19;20010;-76
2023/11/03 12:13:09;;;;;;;10.45;3.05;;;6.60;99.90;;;;;;7515992;19;20010;-75
2023/11/03 12:15:56;;;;;;;9.98;2.85;;;6.60;99.90;;;;;;7502349;19;20018;-74
2023/11/03 12:18:30;;;;;;;7.35;2.55;;;6.60;99.90;;;;;;7493912;19;20022;-74
2023/11/03 12:21:03;;;;;;;8.25;2.33;;;6.60;99.90;;;;;;7476281;19;25383;-75
2023/11/03 12:23:35;;;;;;;8.82;2.97;;;6.60;99.90;;;;;;7489094;19;20689;-74
2023/11/03 12:26:15;;;;;;;12.30;3.88;;;6.60;99.90;;;;;;7492911;19;20777;-74
2023/11/03 12:28:47;;;;;;;6.53;2.47;;;6.70;99.90;;;;;;7508627;19;20026;-74
2023/11/03 12:31:21;;;;;;;12.27;3.13;;;6.70;99.90;;;;;;7484245;19;20010;-77
2023/11/03 12:34:05;;;;;;;7.07;2.80;;;6.70;99.90;;;;;;7512582;19;20930;-76
2023/11/03 12:36:44;;;;;;;5.35;2.88;;;6.70;99.90;;;;;;7508015;19;20014;-74
2023/11/03 12:39:18;;;;;;;7.93;2.35;;;6.70;99.90;;;;;;7507065;19;20025;-75
2023/11/03 12:42:23;;;;;;;9.70;3.25;;;6.70;99.90;;;;;;7553224;19;20458;-74
2023/11/03 12:45:03;;;;;;;9.02;3.20;;;6.80;99.90;;;;;;7524299;19;20011;-75
2023/11/03 12:47:50;;;;;;;4.15;2.30;;;6.80;99.90;;;;;;7513041;19;20006;-76
2023/11/03 12:50:26;;;;;;;9.52;3.40;;;7.00;99.90;;;;;;7495480;19;20278;-74
2023/11/03 12:52:58;;;;;;;18.80;3.03;;;7.00;99.90;;;;;;7504342;19;20018;-74
2023/11/03 12:55:36;;;;;;;7.28;2.50;;;7.10;99.90;;;;;;7508702;19;20025;-75
2023/11/03 12:58:10;;;;;;;10.93;3.13;;;6.90;99.90;;;;;;7508733;19;20595;-74
2023/11/03 13:00:48;;;;;;;12.63;4.82;;;6.80;99.90;;;;;;7518729;19;20389;-75
2023/11/03 13:03:22;;;;;;;8.02;2.38;;;6.80;99.90;;;;;;7521182;19;20649;-74
2023/11/03 13:05:55;;;;;;;;;;;6.80;99.90;;;;;;7496566;19;20056;-75
2023/11/03 13:08:29;;;;;;;9.00;2.20;;;6.90;99.90;;;;;;7503410;19;19934;-76
2023/11/03 13:11:02;;;;;;;5.57;2.20;;;6.90;99.90;;;;;;7493476;19;20017;-74
2023/11/03 13:13:55;;;;;;;7.65;2.42;;;6.90;99.90;;;;;;7482210;19;21055;-74
2023/11/03 13:16:33;;;;;;;5.03;2.20;;;6.90;99.90;;;;;;7502572;19;20025;-76
2023/11/03 13:19:05;;;;;;;5.88;2.17;;;6.90;99.90;;;;;;7518201;19;20025;-74
2023/11/03 13:21:38;;;;;;;7.13;2.07;;;6.90;99.90;;;;;;7511847;19;20030;-74
2023/11/03 13:24:12;;;;;;;7.07;2.33;;;7.00;99.90;;;;;;7488047;19;20122;-74
2023/11/03 13:26:47;;;;;;;5.88;2.20;;;7.00;99.90;;;;;;7486342;19;20042;-76
2023/11/03 13:29:19;;;;;;;7.22;2.45;;;7.10;99.90;;;;;;7479585;19;20018;-74
2023/11/03 13:31:54;;;;;;;4.32;1.85;;;7.00;99.90;;;;;;7418471;19;20011;-74